N852PS SBSI-SBRB
Flight info
| Callsign | N852PS |
|---|---|
| Flight time | 2h 37m |
| Altitude | 28000 |
| Route | BOLSO DCT EDPOR DCT ESMAL |
| Aircraft | TBM8/L-SDFGRWY/S |
Departure
| Time | 2026-04-27 19:54 |
|---|---|
| Airport | Presidente João Batista Figueiredo Airport (SBSI) |
Arrival
| Time | 2026-04-27 22:31 |
|---|---|
| Airport | Rio Branco-Plácido de Castro International Airport (SBRB) |
| Time | Latitude | Longitude | Altitude | Speed | Heading |
|---|---|---|---|---|---|
| 2026-04-27 19:39 | -11.87956 | -55.58281 | 1240 ft | 0 kts | 14° |
| 2026-04-27 19:48 | -11.87940 | -55.58281 | 1252 ft | 6 kts | 334° |
| 2026-04-27 19:49 | -11.87913 | -55.58310 | 1243 ft | 7 kts | 4° |
| 2026-04-27 19:49 | -11.87856 | -55.58310 | 1256 ft | 11 kts | 307° |
| 2026-04-27 19:49 | -11.87830 | -55.58395 | 1247 ft | 13 kts | 288° |
| 2026-04-27 19:49 | -11.87861 | -55.58458 | 1252 ft | 11 kts | 194° |
| 2026-04-27 19:50 | -11.87939 | -55.58478 | 1256 ft | 13 kts | 195° |
| 2026-04-27 19:50 | -11.88042 | -55.58506 | 1255 ft | 18 kts | 194° |
| 2026-04-27 19:50 | -11.88176 | -55.58541 | 1256 ft | 22 kts | 195° |
| 2026-04-27 19:50 | -11.88333 | -55.58584 | 1258 ft | 25 kts | 195° |
| 2026-04-27 19:51 | -11.88511 | -55.58632 | 1257 ft | 28 kts | 195° |
| 2026-04-27 19:51 | -11.88707 | -55.58684 | 1258 ft | 30 kts | 194° |
| 2026-04-27 19:51 | -11.88913 | -55.58740 | 1256 ft | 31 kts | 194° |
| 2026-04-27 19:51 | -11.89074 | -55.58783 | 1256 ft | 19 kts | 196° |
| 2026-04-27 19:52 | -11.89171 | -55.58792 | 1258 ft | 10 kts | 144° |
| 2026-04-27 19:52 | -11.89205 | -55.58800 | 1258 ft | 3 kts | 289° |
| 2026-04-27 19:52 | -11.89190 | -55.58815 | 1255 ft | 1 kts | 353° |
| 2026-04-27 19:52 | -11.89183 | -55.58814 | 1255 ft | 0 kts | 18° |
| 2026-04-27 19:53 | -11.89045 | -55.58775 | 1260 ft | 44 kts | 14° |
| 2026-04-27 19:53 | -11.88603 | -55.58657 | 1257 ft | 87 kts | 14° |
| 2026-04-27 19:53 | -11.87928 | -55.58496 | 1367 ft | 108 kts | 14° |
| 2026-04-27 19:54 | -11.87157 | -55.58297 | 1620 ft | 118 kts | 17° |
| 2026-04-27 19:54 | -11.86358 | -55.58156 | 1956 ft | 119 kts | 355° |
| 2026-04-27 19:54 | -11.85602 | -55.58578 | 2219 ft | 132 kts | 312° |
| 2026-04-27 19:54 | -11.85113 | -55.59352 | 2631 ft | 132 kts | 297° |
| 2026-04-27 19:55 | -11.84746 | -55.60248 | 2933 ft | 143 kts | 294° |
| 2026-04-27 19:55 | -11.84257 | -55.61161 | 3194 ft | 151 kts | 304° |
| 2026-04-27 19:55 | -11.83685 | -55.62083 | 3539 ft | 156 kts | 303° |
| 2026-04-27 19:55 | -11.83141 | -55.63061 | 3905 ft | 162 kts | 299° |
| 2026-04-27 19:56 | -11.82594 | -55.64066 | 4394 ft | 162 kts | 300° |
| 2026-04-27 19:56 | -11.82037 | -55.65066 | 4826 ft | 162 kts | 301° |
| 2026-04-27 19:56 | -11.81463 | -55.66065 | 5278 ft | 164 kts | 301° |
| 2026-04-27 19:56 | -11.80880 | -55.67072 | 5680 ft | 165 kts | 301° |
| 2026-04-27 19:57 | -11.80299 | -55.68097 | 6056 ft | 168 kts | 297° |
| 2026-04-27 19:57 | -11.80064 | -55.69255 | 6446 ft | 169 kts | 264° |
| 2026-04-27 19:57 | -11.80280 | -55.70441 | 6807 ft | 171 kts | 257° |
| 2026-04-27 19:57 | -11.80506 | -55.71640 | 7223 ft | 172 kts | 258° |
| 2026-04-27 19:58 | -11.80728 | -55.72844 | 7605 ft | 173 kts | 258° |
| 2026-04-27 19:58 | -11.80954 | -55.74055 | 7984 ft | 174 kts | 258° |
| 2026-04-27 19:58 | -11.81180 | -55.75274 | 8341 ft | 175 kts | 258° |
| 2026-04-27 19:58 | -11.81404 | -55.76498 | 8723 ft | 176 kts | 258° |
| 2026-04-27 19:59 | -11.81632 | -55.77726 | 9096 ft | 177 kts | 258° |
| 2026-04-27 19:59 | -11.81858 | -55.78949 | 9477 ft | 178 kts | 258° |
| 2026-04-27 19:59 | -11.82085 | -55.80193 | 9844 ft | 179 kts | 258° |
| 2026-04-27 19:59 | -11.82313 | -55.81443 | 10182 ft | 179 kts | 258° |
| 2026-04-27 20:00 | -11.82317 | -55.82711 | 10537 ft | 180 kts | 277° |
| 2026-04-27 20:00 | -11.82135 | -55.83980 | 10862 ft | 181 kts | 278° |
| 2026-04-27 20:00 | -11.81955 | -55.85258 | 11211 ft | 182 kts | 277° |
| 2026-04-27 20:00 | -11.81781 | -55.86540 | 11556 ft | 183 kts | 277° |
| 2026-04-27 20:01 | -11.81605 | -55.87829 | 11909 ft | 184 kts | 277° |
| 2026-04-27 20:01 | -11.81431 | -55.89124 | 12239 ft | 185 kts | 277° |
| 2026-04-27 20:01 | -11.81255 | -55.90424 | 12567 ft | 185 kts | 277° |
| 2026-04-27 20:01 | -11.81078 | -55.91731 | 12892 ft | 186 kts | 277° |
| 2026-04-27 20:02 | -11.80899 | -55.93045 | 13218 ft | 187 kts | 276° |
| 2026-04-27 20:02 | -11.80722 | -55.94361 | 13528 ft | 188 kts | 276° |
| 2026-04-27 20:02 | -11.80544 | -55.95685 | 13832 ft | 189 kts | 277° |
| 2026-04-27 20:02 | -11.80365 | -55.97015 | 14109 ft | 190 kts | 277° |
| 2026-04-27 20:03 | -11.80184 | -55.98351 | 14391 ft | 191 kts | 277° |
| 2026-04-27 20:03 | -11.80003 | -55.99695 | 14671 ft | 191 kts | 277° |
| 2026-04-27 20:03 | -11.79821 | -56.01042 | 14952 ft | 192 kts | 277° |
| 2026-04-27 20:03 | -11.79640 | -56.02380 | 15222 ft | 193 kts | 277° |
| 2026-04-27 20:04 | -11.79454 | -56.03737 | 15520 ft | 194 kts | 277° |
| 2026-04-27 20:04 | -11.79269 | -56.05109 | 15809 ft | 195 kts | 277° |
| 2026-04-27 20:04 | -11.79086 | -56.06482 | 16091 ft | 196 kts | 277° |
| 2026-04-27 20:04 | -11.78900 | -56.07862 | 16373 ft | 196 kts | 278° |
| 2026-04-27 20:05 | -11.78713 | -56.09244 | 16656 ft | 197 kts | 278° |
| 2026-04-27 20:05 | -11.78522 | -56.10634 | 16935 ft | 198 kts | 278° |
| 2026-04-27 20:05 | -11.78338 | -56.12028 | 17211 ft | 198 kts | 278° |
| 2026-04-27 20:05 | -11.78157 | -56.13426 | 17489 ft | 199 kts | 278° |
| 2026-04-27 20:06 | -11.77973 | -56.14829 | 17772 ft | 200 kts | 278° |
| 2026-04-27 20:06 | -11.77783 | -56.16238 | 18058 ft | 201 kts | 278° |
| 2026-04-27 20:06 | -11.77591 | -56.17650 | 18312 ft | 201 kts | 278° |
| 2026-04-27 20:06 | -11.77398 | -56.19070 | 18547 ft | 202 kts | 278° |
| 2026-04-27 20:07 | -11.77203 | -56.20494 | 18780 ft | 203 kts | 278° |
| 2026-04-27 20:07 | -11.77009 | -56.21921 | 19008 ft | 203 kts | 278° |
| 2026-04-27 20:07 | -11.76814 | -56.23351 | 19234 ft | 204 kts | 278° |
| 2026-04-27 20:07 | -11.76618 | -56.24788 | 19464 ft | 205 kts | 278° |
| 2026-04-27 20:08 | -11.76423 | -56.26226 | 19698 ft | 205 kts | 278° |
| 2026-04-27 20:08 | -11.76224 | -56.27674 | 19933 ft | 206 kts | 279° |
| 2026-04-27 20:08 | -11.76026 | -56.29124 | 20163 ft | 207 kts | 278° |
| 2026-04-27 20:08 | -11.75828 | -56.30577 | 20384 ft | 207 kts | 279° |
| 2026-04-27 20:09 | -11.75627 | -56.32039 | 20605 ft | 208 kts | 279° |
| 2026-04-27 20:09 | -11.75427 | -56.33504 | 20826 ft | 209 kts | 279° |
| 2026-04-27 20:09 | -11.75226 | -56.34974 | 21048 ft | 209 kts | 279° |
| 2026-04-27 20:09 | -11.75024 | -56.36448 | 21276 ft | 210 kts | 279° |
| 2026-04-27 20:10 | -11.74822 | -56.37929 | 21503 ft | 211 kts | 279° |
| 2026-04-27 20:10 | -11.74619 | -56.39414 | 21742 ft | 212 kts | 279° |
| 2026-04-27 20:10 | -11.74414 | -56.40904 | 21958 ft | 212 kts | 279° |
| 2026-04-27 20:10 | -11.74213 | -56.42380 | 22166 ft | 213 kts | 279° |
| 2026-04-27 20:11 | -11.74007 | -56.43877 | 22391 ft | 214 kts | 279° |
| 2026-04-27 20:11 | -11.73802 | -56.45382 | 22602 ft | 214 kts | 279° |
| 2026-04-27 20:11 | -11.73595 | -56.46891 | 22808 ft | 215 kts | 279° |
| 2026-04-27 20:11 | -11.73386 | -56.48408 | 23018 ft | 216 kts | 279° |
| 2026-04-27 20:12 | -11.73177 | -56.49926 | 23224 ft | 217 kts | 279° |
| 2026-04-27 20:12 | -11.73037 | -56.50934 | 23361 ft | 217 kts | 279° |
| 2026-04-27 20:12 | -11.72757 | -56.52975 | 23603 ft | 218 kts | 279° |
| 2026-04-27 20:12 | -11.72546 | -56.54508 | 23771 ft | 218 kts | 279° |
| 2026-04-27 20:13 | -11.72337 | -56.56042 | 23940 ft | 219 kts | 279° |
| 2026-04-27 20:13 | -11.72125 | -56.57584 | 24110 ft | 219 kts | 279° |
| 2026-04-27 20:13 | -11.71912 | -56.59128 | 24277 ft | 220 kts | 279° |
| 2026-04-27 20:13 | -11.71700 | -56.60676 | 24439 ft | 220 kts | 279° |
| 2026-04-27 20:14 | -11.71486 | -56.62226 | 24602 ft | 221 kts | 279° |
| 2026-04-27 20:14 | -11.71275 | -56.63759 | 24766 ft | 221 kts | 279° |
| 2026-04-27 20:14 | -11.71061 | -56.65317 | 24933 ft | 222 kts | 279° |
| 2026-04-27 20:14 | -11.70846 | -56.66878 | 25099 ft | 223 kts | 279° |
| 2026-04-27 20:15 | -11.70630 | -56.68442 | 25260 ft | 223 kts | 279° |
| 2026-04-27 20:15 | -11.70414 | -56.70014 | 25421 ft | 224 kts | 278° |
| 2026-04-27 20:15 | -11.70198 | -56.71587 | 25585 ft | 224 kts | 278° |
| 2026-04-27 20:15 | -11.69982 | -56.73167 | 25749 ft | 225 kts | 278° |
| 2026-04-27 20:16 | -11.69763 | -56.74747 | 25902 ft | 225 kts | 278° |
| 2026-04-27 20:16 | -11.69545 | -56.76333 | 26051 ft | 226 kts | 278° |
| 2026-04-27 20:16 | -11.69325 | -56.77922 | 26212 ft | 227 kts | 278° |
| 2026-04-27 20:16 | -11.69106 | -56.79518 | 26365 ft | 227 kts | 278° |
| 2026-04-27 20:17 | -11.68886 | -56.81114 | 26532 ft | 227 kts | 278° |
| 2026-04-27 20:17 | -11.68666 | -56.82714 | 26690 ft | 228 kts | 278° |
| 2026-04-27 20:17 | -11.68444 | -56.84317 | 26841 ft | 228 kts | 278° |
| 2026-04-27 20:17 | -11.68297 | -56.85381 | 26940 ft | 229 kts | 278° |
| 2026-04-27 20:18 | -11.67998 | -56.87534 | 27136 ft | 230 kts | 278° |
| 2026-04-27 20:18 | -11.67775 | -56.89151 | 27284 ft | 230 kts | 278° |
| 2026-04-27 20:18 | -11.67551 | -56.90769 | 27425 ft | 231 kts | 278° |
| 2026-04-27 20:18 | -11.67328 | -56.92393 | 27566 ft | 231 kts | 278° |
| 2026-04-27 20:19 | -11.67103 | -56.94019 | 27714 ft | 232 kts | 278° |
| 2026-04-27 20:19 | -11.66878 | -56.95646 | 27859 ft | 232 kts | 278° |
| 2026-04-27 20:19 | -11.66648 | -56.97301 | 27878 ft | 239 kts | 278° |
| 2026-04-27 20:19 | -11.66408 | -56.98996 | 27887 ft | 245 kts | 278° |
| 2026-04-27 20:20 | -11.66162 | -57.00740 | 27892 ft | 251 kts | 278° |
| 2026-04-27 20:20 | -11.65912 | -57.02520 | 27897 ft | 257 kts | 278° |
| 2026-04-27 20:20 | -11.65656 | -57.04346 | 27897 ft | 262 kts | 278° |
| 2026-04-27 20:20 | -11.65397 | -57.06207 | 27899 ft | 268 kts | 278° |
| 2026-04-27 20:21 | -11.65133 | -57.08105 | 27901 ft | 272 kts | 278° |
| 2026-04-27 20:21 | -11.64869 | -57.10009 | 27898 ft | 277 kts | 278° |
| 2026-04-27 20:21 | -11.64597 | -57.11964 | 27895 ft | 280 kts | 278° |
| 2026-04-27 20:21 | -11.64322 | -57.13943 | 27897 ft | 284 kts | 278° |
| 2026-04-27 20:22 | -11.64043 | -57.15944 | 27898 ft | 287 kts | 278° |
| 2026-04-27 20:22 | -11.63761 | -57.17969 | 27899 ft | 289 kts | 278° |
| 2026-04-27 20:22 | -11.63477 | -57.20007 | 27897 ft | 292 kts | 278° |
| 2026-04-27 20:22 | -11.63189 | -57.22064 | 27892 ft | 294 kts | 278° |
| 2026-04-27 20:23 | -11.62900 | -57.24133 | 27892 ft | 295 kts | 278° |
| 2026-04-27 20:23 | -11.62606 | -57.26240 | 27892 ft | 297 kts | 278° |
| 2026-04-27 20:23 | -11.62319 | -57.28302 | 27892 ft | 298 kts | 278° |
| 2026-04-27 20:23 | -11.62025 | -57.30406 | 27891 ft | 300 kts | 278° |
| 2026-04-27 20:24 | -11.61730 | -57.32513 | 27890 ft | 300 kts | 278° |
| 2026-04-27 20:24 | -11.61433 | -57.34626 | 27891 ft | 301 kts | 278° |
| 2026-04-27 20:24 | -11.61136 | -57.36745 | 27891 ft | 302 kts | 278° |
| 2026-04-27 20:24 | -11.60838 | -57.38871 | 27890 ft | 303 kts | 278° |
| 2026-04-27 20:25 | -11.60540 | -57.41000 | 27889 ft | 303 kts | 278° |
| 2026-04-27 20:25 | -11.60342 | -57.42410 | 27894 ft | 304 kts | 278° |
| 2026-04-27 20:25 | -11.59941 | -57.45264 | 27891 ft | 304 kts | 278° |
| 2026-04-27 20:25 | -11.59641 | -57.47399 | 27893 ft | 304 kts | 278° |
| 2026-04-27 20:26 | -11.59344 | -57.49510 | 27893 ft | 305 kts | 278° |
| 2026-04-27 20:26 | -11.59043 | -57.51648 | 27890 ft | 305 kts | 278° |
| 2026-04-27 20:26 | -11.58741 | -57.53792 | 27891 ft | 305 kts | 278° |
| 2026-04-27 20:26 | -11.58537 | -57.55241 | 27892 ft | 305 kts | 278° |
| 2026-04-27 20:27 | -11.58239 | -57.57360 | 27893 ft | 306 kts | 278° |
| 2026-04-27 20:27 | -11.57937 | -57.59505 | 27891 ft | 306 kts | 278° |
| 2026-04-27 20:27 | -11.57630 | -57.61677 | 27892 ft | 306 kts | 278° |
| 2026-04-27 20:27 | -11.57331 | -57.63798 | 27892 ft | 306 kts | 278° |
| 2026-04-27 20:28 | -11.57029 | -57.65943 | 27890 ft | 306 kts | 278° |
| 2026-04-27 20:28 | -11.56724 | -57.68103 | 27893 ft | 306 kts | 278° |
| 2026-04-27 20:28 | -11.56420 | -57.70250 | 27891 ft | 306 kts | 278° |
| 2026-04-27 20:28 | -11.56116 | -57.72401 | 27892 ft | 306 kts | 278° |
| 2026-04-27 20:29 | -11.55812 | -57.74552 | 27891 ft | 306 kts | 278° |
| 2026-04-27 20:29 | -11.55511 | -57.76675 | 27893 ft | 306 kts | 278° |
| 2026-04-27 20:29 | -11.55208 | -57.78825 | 27893 ft | 306 kts | 278° |
| 2026-04-27 20:29 | -11.54903 | -57.80976 | 27897 ft | 306 kts | 278° |
| 2026-04-27 20:30 | -11.54598 | -57.83132 | 27894 ft | 307 kts | 278° |
| 2026-04-27 20:30 | -11.54293 | -57.85282 | 27897 ft | 307 kts | 278° |
| 2026-04-27 20:30 | -11.53986 | -57.87435 | 27895 ft | 307 kts | 278° |
| 2026-04-27 20:30 | -11.53681 | -57.89590 | 27893 ft | 307 kts | 278° |
| 2026-04-27 20:31 | -11.53375 | -57.91739 | 27896 ft | 307 kts | 278° |
| 2026-04-27 20:31 | -11.53069 | -57.93896 | 27895 ft | 307 kts | 278° |
| 2026-04-27 20:31 | -11.52763 | -57.96048 | 27893 ft | 307 kts | 278° |
| 2026-04-27 20:31 | -11.52457 | -57.98204 | 27893 ft | 307 kts | 278° |
| 2026-04-27 20:32 | -11.52150 | -58.00356 | 27892 ft | 307 kts | 278° |
| 2026-04-27 20:32 | -11.51843 | -58.02507 | 27895 ft | 307 kts | 278° |
| 2026-04-27 20:32 | -11.51537 | -58.04663 | 27897 ft | 307 kts | 278° |
| 2026-04-27 20:32 | -11.51229 | -58.06822 | 27897 ft | 307 kts | 278° |
| 2026-04-27 20:33 | -11.50926 | -58.08945 | 27894 ft | 307 kts | 278° |
| 2026-04-27 20:33 | -11.50614 | -58.11129 | 27896 ft | 307 kts | 278° |
| 2026-04-27 20:33 | -11.50310 | -58.13256 | 27900 ft | 307 kts | 278° |
| 2026-04-27 20:33 | -11.50001 | -58.15416 | 27895 ft | 307 kts | 278° |
| 2026-04-27 20:34 | -11.49693 | -58.17573 | 27894 ft | 307 kts | 278° |
| 2026-04-27 20:34 | -11.49385 | -58.19727 | 27897 ft | 307 kts | 278° |
| 2026-04-27 20:34 | -11.49076 | -58.21885 | 27900 ft | 308 kts | 278° |
| 2026-04-27 20:34 | -11.48767 | -58.24043 | 27899 ft | 308 kts | 278° |
| 2026-04-27 20:35 | -11.48457 | -58.26202 | 27898 ft | 308 kts | 278° |
| 2026-04-27 20:35 | -11.48148 | -58.28359 | 27898 ft | 308 kts | 278° |
| 2026-04-27 20:35 | -11.47839 | -58.30518 | 27900 ft | 308 kts | 278° |
| 2026-04-27 20:35 | -11.47531 | -58.32675 | 27897 ft | 308 kts | 278° |
| 2026-04-27 20:36 | -11.47221 | -58.34837 | 27899 ft | 308 kts | 278° |
| 2026-04-27 20:36 | -11.46911 | -58.36994 | 27901 ft | 308 kts | 278° |
| 2026-04-27 20:36 | -11.46601 | -58.39158 | 27900 ft | 308 kts | 278° |
| 2026-04-27 20:36 | -11.46291 | -58.41319 | 27900 ft | 308 kts | 278° |
| 2026-04-27 20:37 | -11.45980 | -58.43478 | 27900 ft | 308 kts | 278° |
| 2026-04-27 20:37 | -11.45669 | -58.45642 | 27902 ft | 308 kts | 278° |
| 2026-04-27 20:37 | -11.45358 | -58.47804 | 27903 ft | 308 kts | 278° |
| 2026-04-27 20:37 | -11.45046 | -58.49966 | 27901 ft | 308 kts | 278° |
| 2026-04-27 20:38 | -11.44734 | -58.52129 | 27904 ft | 308 kts | 278° |
| 2026-04-27 20:38 | -11.44422 | -58.54294 | 27904 ft | 309 kts | 278° |
| 2026-04-27 20:38 | -11.44110 | -58.56459 | 27905 ft | 309 kts | 278° |
| 2026-04-27 20:38 | -11.43797 | -58.58627 | 27909 ft | 309 kts | 278° |
| 2026-04-27 20:39 | -11.43486 | -58.60793 | 27911 ft | 309 kts | 278° |
| 2026-04-27 20:39 | -11.43176 | -58.62937 | 27911 ft | 309 kts | 278° |
| 2026-04-27 20:39 | -11.42861 | -58.65109 | 27907 ft | 310 kts | 278° |
| 2026-04-27 20:39 | -11.42547 | -58.67279 | 27909 ft | 310 kts | 278° |
| 2026-04-27 20:40 | -11.42233 | -58.69449 | 27908 ft | 310 kts | 279° |
| 2026-04-27 20:40 | -11.41919 | -58.71622 | 27911 ft | 310 kts | 279° |
| 2026-04-27 20:40 | -11.41604 | -58.73796 | 27910 ft | 310 kts | 279° |
| 2026-04-27 20:40 | -11.41288 | -58.75974 | 27909 ft | 310 kts | 279° |
| 2026-04-27 20:41 | -11.40973 | -58.78145 | 27910 ft | 310 kts | 279° |
| 2026-04-27 20:41 | -11.40658 | -58.80319 | 27908 ft | 310 kts | 279° |
| 2026-04-27 20:41 | -11.40343 | -58.82491 | 27912 ft | 310 kts | 279° |
| 2026-04-27 20:41 | -11.40027 | -58.84665 | 27906 ft | 310 kts | 279° |
| 2026-04-27 20:42 | -11.39711 | -58.86839 | 27908 ft | 310 kts | 279° |
| 2026-04-27 20:42 | -11.39394 | -58.89012 | 27912 ft | 310 kts | 279° |
| 2026-04-27 20:42 | -11.39071 | -58.91184 | 27910 ft | 310 kts | 279° |
| 2026-04-27 20:42 | -11.38744 | -58.93357 | 27907 ft | 310 kts | 279° |
| 2026-04-27 20:43 | -11.38417 | -58.95530 | 27911 ft | 310 kts | 279° |
| 2026-04-27 20:43 | -11.38091 | -58.97701 | 27913 ft | 310 kts | 279° |
| 2026-04-27 20:43 | -11.37766 | -58.99873 | 27912 ft | 310 kts | 279° |
| 2026-04-27 20:43 | -11.37440 | -59.02049 | 27914 ft | 310 kts | 279° |
| 2026-04-27 20:44 | -11.37113 | -59.04219 | 27914 ft | 310 kts | 279° |
| 2026-04-27 20:44 | -11.36794 | -59.06362 | 27908 ft | 309 kts | 279° |
| 2026-04-27 20:44 | -11.36469 | -59.08527 | 27909 ft | 309 kts | 279° |
| 2026-04-27 20:44 | -11.36143 | -59.10687 | 27907 ft | 309 kts | 279° |
| 2026-04-27 20:45 | -11.35817 | -59.12852 | 27908 ft | 309 kts | 279° |
| 2026-04-27 20:45 | -11.35492 | -59.15015 | 27912 ft | 309 kts | 279° |
| 2026-04-27 20:45 | -11.35161 | -59.17211 | 27911 ft | 309 kts | 279° |
| 2026-04-27 20:45 | -11.34839 | -59.19349 | 27913 ft | 309 kts | 279° |
| 2026-04-27 20:46 | -11.34515 | -59.21513 | 27911 ft | 309 kts | 279° |
| 2026-04-27 20:46 | -11.34188 | -59.23682 | 27913 ft | 310 kts | 279° |
| 2026-04-27 20:46 | -11.33860 | -59.25853 | 27911 ft | 310 kts | 279° |
| 2026-04-27 20:46 | -11.33533 | -59.28021 | 27911 ft | 310 kts | 279° |
| 2026-04-27 20:47 | -11.33205 | -59.30191 | 27912 ft | 310 kts | 279° |
| 2026-04-27 20:47 | -11.32878 | -59.32360 | 27915 ft | 310 kts | 279° |
| 2026-04-27 20:47 | -11.32549 | -59.34530 | 27912 ft | 310 kts | 279° |
| 2026-04-27 20:47 | -11.32221 | -59.36702 | 27910 ft | 310 kts | 279° |
| 2026-04-27 20:48 | -11.31893 | -59.38872 | 27913 ft | 310 kts | 279° |
| 2026-04-27 20:48 | -11.31565 | -59.41044 | 27911 ft | 310 kts | 279° |
| 2026-04-27 20:48 | -11.31236 | -59.43216 | 27910 ft | 310 kts | 279° |
| 2026-04-27 20:48 | -11.30908 | -59.45385 | 27914 ft | 310 kts | 279° |
| 2026-04-27 20:49 | -11.30579 | -59.47552 | 27912 ft | 310 kts | 279° |
| 2026-04-27 20:49 | -11.30248 | -59.49734 | 27911 ft | 310 kts | 279° |
| 2026-04-27 20:49 | -11.29919 | -59.51906 | 27909 ft | 310 kts | 279° |
| 2026-04-27 20:49 | -11.29593 | -59.54051 | 27910 ft | 310 kts | 279° |
| 2026-04-27 20:50 | -11.29258 | -59.56254 | 27911 ft | 310 kts | 279° |
| 2026-04-27 20:50 | -11.28929 | -59.58427 | 27915 ft | 310 kts | 279° |
| 2026-04-27 20:50 | -11.28599 | -59.60598 | 27913 ft | 311 kts | 279° |
| 2026-04-27 20:50 | -11.28269 | -59.62773 | 27913 ft | 311 kts | 279° |
| 2026-04-27 20:51 | -11.27938 | -59.64949 | 27913 ft | 311 kts | 279° |
| 2026-04-27 20:51 | -11.27607 | -59.67124 | 27912 ft | 311 kts | 279° |
| 2026-04-27 20:51 | -11.27274 | -59.69301 | 27915 ft | 311 kts | 279° |
| 2026-04-27 20:51 | -11.26943 | -59.71477 | 27916 ft | 311 kts | 279° |
| 2026-04-27 20:52 | -11.26614 | -59.73630 | 27915 ft | 311 kts | 279° |
| 2026-04-27 20:52 | -11.26283 | -59.75804 | 27916 ft | 311 kts | 279° |
| 2026-04-27 20:52 | -11.25950 | -59.77981 | 27919 ft | 311 kts | 279° |
| 2026-04-27 20:52 | -11.25618 | -59.80159 | 27917 ft | 311 kts | 279° |
| 2026-04-27 20:53 | -11.25286 | -59.82335 | 27920 ft | 311 kts | 279° |
| 2026-04-27 20:53 | -11.24952 | -59.84521 | 27917 ft | 311 kts | 279° |
| 2026-04-27 20:53 | -11.24619 | -59.86699 | 27916 ft | 311 kts | 279° |
| 2026-04-27 20:53 | -11.24285 | -59.88875 | 27915 ft | 311 kts | 279° |
| 2026-04-27 20:54 | -11.23617 | -59.93234 | 27917 ft | 311 kts | 279° |
| 2026-04-27 20:54 | -11.23284 | -59.95411 | 27917 ft | 311 kts | 279° |
| 2026-04-27 20:54 | -11.22950 | -59.97592 | 27914 ft | 311 kts | 279° |
| 2026-04-27 20:55 | -11.22616 | -59.99772 | 27916 ft | 311 kts | 279° |
| 2026-04-27 20:55 | -11.22281 | -60.01952 | 27917 ft | 312 kts | 279° |
| 2026-04-27 20:55 | -11.21946 | -60.04131 | 27918 ft | 312 kts | 279° |
| 2026-04-27 20:55 | -11.21612 | -60.06314 | 27918 ft | 312 kts | 279° |
| 2026-04-27 20:56 | -11.21277 | -60.08492 | 27917 ft | 312 kts | 279° |
| 2026-04-27 20:56 | -11.20946 | -60.10646 | 27915 ft | 312 kts | 279° |
| 2026-04-27 20:56 | -11.20611 | -60.12831 | 27917 ft | 312 kts | 279° |
| 2026-04-27 20:56 | -11.20277 | -60.15009 | 27918 ft | 312 kts | 279° |
| 2026-04-27 20:57 | -11.19941 | -60.17190 | 27917 ft | 312 kts | 279° |
| 2026-04-27 20:57 | -11.19606 | -60.19368 | 27916 ft | 312 kts | 279° |
| 2026-04-27 20:57 | -11.19270 | -60.21549 | 27919 ft | 312 kts | 279° |
| 2026-04-27 20:57 | -11.18934 | -60.23727 | 27916 ft | 311 kts | 279° |
| 2026-04-27 20:58 | -11.18598 | -60.25905 | 27916 ft | 311 kts | 279° |
| 2026-04-27 20:58 | -11.18262 | -60.28086 | 27916 ft | 311 kts | 279° |
| 2026-04-27 20:58 | -11.17926 | -60.30261 | 27918 ft | 311 kts | 279° |
| 2026-04-27 20:58 | -11.17590 | -60.32440 | 27919 ft | 311 kts | 279° |
| 2026-04-27 20:59 | -11.17253 | -60.34618 | 27916 ft | 311 kts | 279° |
| 2026-04-27 20:59 | -11.16917 | -60.36794 | 27913 ft | 311 kts | 279° |
| 2026-04-27 20:59 | -11.16581 | -60.38970 | 27915 ft | 311 kts | 279° |
| 2026-04-27 20:59 | -11.16244 | -60.41146 | 27917 ft | 311 kts | 279° |
| 2026-04-27 21:00 | -11.15908 | -60.43318 | 27917 ft | 311 kts | 279° |
| 2026-04-27 21:00 | -11.15575 | -60.45463 | 27915 ft | 311 kts | 279° |
| 2026-04-27 21:00 | -11.15240 | -60.47638 | 27912 ft | 311 kts | 279° |
| 2026-04-27 21:00 | -11.14903 | -60.49809 | 27913 ft | 311 kts | 279° |
| 2026-04-27 21:01 | -11.14567 | -60.51978 | 27915 ft | 311 kts | 279° |
| 2026-04-27 21:01 | -11.14228 | -60.54156 | 27915 ft | 311 kts | 279° |
| 2026-04-27 21:01 | -11.13891 | -60.56328 | 27917 ft | 311 kts | 279° |
| 2026-04-27 21:01 | -11.13554 | -60.58499 | 27911 ft | 311 kts | 279° |
| 2026-04-27 21:02 | -11.13216 | -60.60675 | 27915 ft | 310 kts | 279° |
| 2026-04-27 21:02 | -11.12879 | -60.62843 | 27909 ft | 310 kts | 279° |
| 2026-04-27 21:02 | -11.12540 | -60.65019 | 27910 ft | 310 kts | 279° |
| 2026-04-27 21:02 | -11.12203 | -60.67187 | 27912 ft | 310 kts | 279° |
| 2026-04-27 21:03 | -11.11865 | -60.69358 | 27912 ft | 310 kts | 279° |
| 2026-04-27 21:03 | -11.11528 | -60.71525 | 27915 ft | 310 kts | 279° |
| 2026-04-27 21:03 | -11.11190 | -60.73694 | 27911 ft | 310 kts | 279° |
| 2026-04-27 21:03 | -11.10851 | -60.75866 | 27913 ft | 310 kts | 279° |
| 2026-04-27 21:04 | -11.10512 | -60.78034 | 27914 ft | 310 kts | 279° |
| 2026-04-27 21:04 | -11.10173 | -60.80202 | 27912 ft | 310 kts | 279° |
| 2026-04-27 21:04 | -11.09840 | -60.82340 | 27912 ft | 310 kts | 279° |
| 2026-04-27 21:04 | -11.09502 | -60.84506 | 27911 ft | 310 kts | 279° |
| 2026-04-27 21:05 | -11.09163 | -60.86674 | 27912 ft | 310 kts | 279° |
| 2026-04-27 21:05 | -11.08825 | -60.88842 | 27912 ft | 310 kts | 279° |
| 2026-04-27 21:05 | -11.08486 | -60.91008 | 27912 ft | 310 kts | 279° |
| 2026-04-27 21:05 | -11.08147 | -60.93173 | 27914 ft | 310 kts | 279° |
| 2026-04-27 21:06 | -11.07807 | -60.95338 | 27911 ft | 310 kts | 279° |
| 2026-04-27 21:06 | -11.07466 | -60.97507 | 27910 ft | 309 kts | 279° |
| 2026-04-27 21:06 | -11.07127 | -60.99667 | 27913 ft | 309 kts | 279° |
| 2026-04-27 21:06 | -11.06788 | -61.01830 | 27917 ft | 310 kts | 279° |
| 2026-04-27 21:07 | -11.06448 | -61.03994 | 27913 ft | 310 kts | 279° |
| 2026-04-27 21:07 | -11.06113 | -61.06132 | 27915 ft | 310 kts | 279° |
| 2026-04-27 21:07 | -11.05772 | -61.08295 | 27911 ft | 310 kts | 279° |
| 2026-04-27 21:07 | -11.05432 | -61.10460 | 27916 ft | 310 kts | 279° |
| 2026-04-27 21:08 | -11.05091 | -61.12625 | 27915 ft | 310 kts | 279° |
| 2026-04-27 21:08 | -11.04750 | -61.14790 | 27911 ft | 310 kts | 279° |
| 2026-04-27 21:08 | -11.04410 | -61.16955 | 27910 ft | 310 kts | 279° |
| 2026-04-27 21:08 | -11.04069 | -61.19119 | 27909 ft | 310 kts | 279° |
| 2026-04-27 21:09 | -11.03727 | -61.21285 | 27913 ft | 310 kts | 279° |
| 2026-04-27 21:09 | -11.03385 | -61.23453 | 27917 ft | 310 kts | 279° |
| 2026-04-27 21:09 | -11.03044 | -61.25620 | 27915 ft | 310 kts | 279° |
| 2026-04-27 21:09 | -11.02702 | -61.27787 | 27912 ft | 310 kts | 279° |
| 2026-04-27 21:10 | -11.02359 | -61.29955 | 27914 ft | 310 kts | 279° |
| 2026-04-27 21:10 | -11.02015 | -61.32128 | 27914 ft | 310 kts | 279° |
| 2026-04-27 21:10 | -11.01673 | -61.34298 | 27916 ft | 310 kts | 279° |
| 2026-04-27 21:10 | -11.01331 | -61.36465 | 27913 ft | 310 kts | 279° |
| 2026-04-27 21:11 | -11.00987 | -61.38636 | 27915 ft | 311 kts | 279° |
| 2026-04-27 21:11 | -11.00644 | -61.40806 | 27914 ft | 311 kts | 279° |
| 2026-04-27 21:11 | -11.00299 | -61.42977 | 27914 ft | 311 kts | 279° |
| 2026-04-27 21:11 | -10.99956 | -61.45145 | 27915 ft | 311 kts | 279° |
| 2026-04-27 21:12 | -10.99612 | -61.47316 | 27916 ft | 311 kts | 279° |
| 2026-04-27 21:12 | -10.99267 | -61.49488 | 27915 ft | 311 kts | 279° |
| 2026-04-27 21:12 | -10.98922 | -61.51661 | 27917 ft | 311 kts | 279° |
| 2026-04-27 21:12 | -10.98578 | -61.53832 | 27919 ft | 311 kts | 279° |
| 2026-04-27 21:13 | -10.98232 | -61.56006 | 27922 ft | 311 kts | 279° |
| 2026-04-27 21:13 | -10.98004 | -61.57445 | 27919 ft | 311 kts | 279° |
| 2026-04-27 21:13 | -10.97545 | -61.60326 | 27917 ft | 311 kts | 279° |
| 2026-04-27 21:13 | -10.97200 | -61.62497 | 27914 ft | 311 kts | 279° |
| 2026-04-27 21:14 | -10.96855 | -61.64675 | 27916 ft | 311 kts | 279° |
| 2026-04-27 21:14 | -10.96507 | -61.66856 | 27913 ft | 311 kts | 279° |
| 2026-04-27 21:14 | -10.96277 | -61.68295 | 27909 ft | 311 kts | 279° |
| 2026-04-27 21:14 | -10.95814 | -61.71200 | 27912 ft | 311 kts | 279° |
| 2026-04-27 21:15 | -10.95585 | -61.72637 | 27913 ft | 311 kts | 279° |
| 2026-04-27 21:15 | -10.95238 | -61.74816 | 27914 ft | 311 kts | 279° |
| 2026-04-27 21:15 | -10.94891 | -61.76985 | 27907 ft | 311 kts | 279° |
| 2026-04-27 21:15 | -10.94544 | -61.79161 | 27908 ft | 311 kts | 279° |
| 2026-04-27 21:16 | -10.94198 | -61.81335 | 27908 ft | 311 kts | 279° |
| 2026-04-27 21:16 | -10.93852 | -61.83506 | 27906 ft | 311 kts | 279° |
| 2026-04-27 21:16 | -10.93506 | -61.85675 | 27911 ft | 311 kts | 279° |
| 2026-04-27 21:16 | -10.93158 | -61.87846 | 27910 ft | 311 kts | 279° |
| 2026-04-27 21:17 | -10.92811 | -61.90015 | 27909 ft | 311 kts | 279° |
| 2026-04-27 21:17 | -10.92465 | -61.92183 | 27909 ft | 310 kts | 279° |
| 2026-04-27 21:17 | -10.92118 | -61.94353 | 27904 ft | 310 kts | 279° |
| 2026-04-27 21:17 | -10.91770 | -61.96529 | 27907 ft | 310 kts | 279° |
| 2026-04-27 21:18 | -10.91423 | -61.98695 | 27910 ft | 310 kts | 279° |
| 2026-04-27 21:18 | -10.91079 | -62.00839 | 27907 ft | 310 kts | 279° |
| 2026-04-27 21:18 | -10.90732 | -62.03005 | 27906 ft | 310 kts | 279° |
| 2026-04-27 21:18 | -10.90384 | -62.05175 | 27906 ft | 310 kts | 279° |
| 2026-04-27 21:19 | -10.90037 | -62.07338 | 27903 ft | 310 kts | 279° |
| 2026-04-27 21:19 | -10.89689 | -62.09505 | 27905 ft | 310 kts | 279° |
| 2026-04-27 21:19 | -10.89342 | -62.11668 | 27907 ft | 310 kts | 279° |
| 2026-04-27 21:20 | -10.88646 | -62.15998 | 27910 ft | 310 kts | 279° |
| 2026-04-27 21:20 | -10.88298 | -62.18160 | 27911 ft | 310 kts | 279° |
| 2026-04-27 21:20 | -10.87949 | -62.20324 | 27908 ft | 310 kts | 279° |
| 2026-04-27 21:20 | -10.87602 | -62.22484 | 27907 ft | 310 kts | 279° |
| 2026-04-27 21:21 | -10.87254 | -62.24649 | 27909 ft | 310 kts | 279° |
| 2026-04-27 21:21 | -10.86906 | -62.26811 | 27911 ft | 310 kts | 279° |
| 2026-04-27 21:21 | -10.86557 | -62.28970 | 27911 ft | 310 kts | 279° |
| 2026-04-27 21:21 | -10.86208 | -62.31134 | 27910 ft | 310 kts | 279° |
| 2026-04-27 21:22 | -10.85859 | -62.33297 | 27913 ft | 310 kts | 279° |
| 2026-04-27 21:22 | -10.85510 | -62.35458 | 27912 ft | 310 kts | 279° |
| 2026-04-27 21:22 | -10.85161 | -62.37623 | 27911 ft | 310 kts | 279° |
| 2026-04-27 21:22 | -10.84811 | -62.39782 | 27911 ft | 310 kts | 279° |
| 2026-04-27 21:23 | -10.84463 | -62.41941 | 27910 ft | 309 kts | 279° |
| 2026-04-27 21:23 | -10.84114 | -62.44102 | 27912 ft | 309 kts | 279° |
| 2026-04-27 21:23 | -10.83764 | -62.46262 | 27914 ft | 309 kts | 279° |
| 2026-04-27 21:23 | -10.83418 | -62.48398 | 27916 ft | 309 kts | 279° |
| 2026-04-27 21:24 | -10.83069 | -62.50555 | 27914 ft | 309 kts | 279° |
| 2026-04-27 21:24 | -10.82719 | -62.52712 | 27915 ft | 309 kts | 279° |
| 2026-04-27 21:24 | -10.82369 | -62.54873 | 27915 ft | 309 kts | 279° |
| 2026-04-27 21:24 | -10.82019 | -62.57034 | 27913 ft | 309 kts | 279° |
| 2026-04-27 21:25 | -10.81669 | -62.59189 | 27913 ft | 309 kts | 279° |
| 2026-04-27 21:25 | -10.81319 | -62.61348 | 27913 ft | 309 kts | 279° |
| 2026-04-27 21:25 | -10.80968 | -62.63511 | 27916 ft | 309 kts | 279° |
| 2026-04-27 21:25 | -10.80617 | -62.65668 | 27913 ft | 309 kts | 279° |
| 2026-04-27 21:26 | -10.80266 | -62.67827 | 27913 ft | 309 kts | 279° |
| 2026-04-27 21:26 | -10.79914 | -62.69986 | 27910 ft | 309 kts | 279° |
| 2026-04-27 21:26 | -10.79563 | -62.72145 | 27913 ft | 309 kts | 279° |
| 2026-04-27 21:26 | -10.79211 | -62.74302 | 27912 ft | 309 kts | 279° |
| 2026-04-27 21:27 | -10.78859 | -62.76461 | 27918 ft | 309 kts | 279° |
| 2026-04-27 21:27 | -10.78507 | -62.78619 | 27917 ft | 309 kts | 279° |
| 2026-04-27 21:27 | -10.78159 | -62.80750 | 27914 ft | 309 kts | 279° |
| 2026-04-27 21:27 | -10.77808 | -62.82906 | 27917 ft | 309 kts | 279° |
| 2026-04-27 21:28 | -10.77456 | -62.85064 | 27917 ft | 309 kts | 279° |
| 2026-04-27 21:28 | -10.77103 | -62.87222 | 27921 ft | 309 kts | 279° |
| 2026-04-27 21:28 | -10.76750 | -62.89378 | 27921 ft | 309 kts | 279° |
| 2026-04-27 21:28 | -10.76397 | -62.91540 | 27918 ft | 309 kts | 279° |
| 2026-04-27 21:29 | -10.76045 | -62.93697 | 27916 ft | 309 kts | 279° |
| 2026-04-27 21:29 | -10.75691 | -62.95853 | 27915 ft | 309 kts | 279° |
| 2026-04-27 21:29 | -10.75338 | -62.98014 | 27917 ft | 309 kts | 279° |
| 2026-04-27 21:29 | -10.74985 | -63.00171 | 27916 ft | 309 kts | 279° |
| 2026-04-27 21:30 | -10.74631 | -63.02328 | 27918 ft | 309 kts | 279° |
| 2026-04-27 21:30 | -10.74278 | -63.04485 | 27915 ft | 309 kts | 279° |
| 2026-04-27 21:30 | -10.73924 | -63.06640 | 27916 ft | 309 kts | 279° |
| 2026-04-27 21:30 | -10.73570 | -63.08795 | 27916 ft | 309 kts | 279° |
| 2026-04-27 21:31 | -10.73216 | -63.10952 | 27920 ft | 309 kts | 279° |
| 2026-04-27 21:31 | -10.72863 | -63.13106 | 27918 ft | 309 kts | 279° |
| 2026-04-27 21:31 | -10.72509 | -63.15264 | 27917 ft | 309 kts | 279° |
| 2026-04-27 21:31 | -10.72154 | -63.17421 | 27918 ft | 309 kts | 279° |
| 2026-04-27 21:32 | -10.71800 | -63.19573 | 27919 ft | 309 kts | 279° |
| 2026-04-27 21:32 | -10.71446 | -63.21727 | 27920 ft | 309 kts | 279° |
| 2026-04-27 21:32 | -10.71091 | -63.23881 | 27920 ft | 309 kts | 279° |
| 2026-04-27 21:32 | -10.70736 | -63.26036 | 27919 ft | 309 kts | 280° |
| 2026-04-27 21:33 | -10.70382 | -63.28189 | 27919 ft | 309 kts | 280° |
| 2026-04-27 21:33 | -10.70027 | -63.30341 | 27922 ft | 309 kts | 279° |
| 2026-04-27 21:33 | -10.69672 | -63.32494 | 27924 ft | 309 kts | 279° |
| 2026-04-27 21:33 | -10.69316 | -63.34652 | 27926 ft | 309 kts | 279° |
| 2026-04-27 21:34 | -10.68961 | -63.36804 | 27922 ft | 309 kts | 280° |
| 2026-04-27 21:34 | -10.68605 | -63.38960 | 27923 ft | 309 kts | 280° |
| 2026-04-27 21:34 | -10.68249 | -63.41114 | 27922 ft | 309 kts | 280° |
| 2026-04-27 21:34 | -10.67894 | -63.43266 | 27923 ft | 309 kts | 280° |
| 2026-04-27 21:35 | -10.67542 | -63.45397 | 27923 ft | 309 kts | 280° |
| 2026-04-27 21:35 | -10.67186 | -63.47549 | 27925 ft | 309 kts | 280° |
| 2026-04-27 21:35 | -10.66829 | -63.49703 | 27925 ft | 309 kts | 280° |
| 2026-04-27 21:35 | -10.66473 | -63.51857 | 27923 ft | 309 kts | 280° |
| 2026-04-27 21:36 | -10.66115 | -63.54017 | 27922 ft | 309 kts | 280° |
| 2026-04-27 21:36 | -10.65759 | -63.56169 | 27924 ft | 309 kts | 280° |
| 2026-04-27 21:36 | -10.65403 | -63.58322 | 27925 ft | 309 kts | 280° |
| 2026-04-27 21:36 | -10.65045 | -63.60481 | 27923 ft | 309 kts | 280° |
| 2026-04-27 21:37 | -10.64688 | -63.62635 | 27923 ft | 309 kts | 280° |
| 2026-04-27 21:37 | -10.64332 | -63.64785 | 27923 ft | 309 kts | 280° |
| 2026-04-27 21:37 | -10.63976 | -63.66938 | 27926 ft | 309 kts | 280° |
| 2026-04-27 21:37 | -10.63617 | -63.69092 | 27924 ft | 309 kts | 280° |
| 2026-04-27 21:38 | -10.63260 | -63.71244 | 27924 ft | 309 kts | 280° |
| 2026-04-27 21:38 | -10.62903 | -63.73395 | 27925 ft | 309 kts | 280° |
| 2026-04-27 21:38 | -10.62546 | -63.75545 | 27924 ft | 309 kts | 280° |
| 2026-04-27 21:38 | -10.62193 | -63.77668 | 27926 ft | 308 kts | 280° |
| 2026-04-27 21:39 | -10.61835 | -63.79817 | 27927 ft | 308 kts | 280° |
| 2026-04-27 21:39 | -10.61478 | -63.81968 | 27924 ft | 308 kts | 280° |
| 2026-04-27 21:39 | -10.61120 | -63.84114 | 27922 ft | 308 kts | 280° |
| 2026-04-27 21:39 | -10.60762 | -63.86262 | 27924 ft | 308 kts | 280° |
| 2026-04-27 21:40 | -10.60405 | -63.88409 | 27922 ft | 308 kts | 280° |
| 2026-04-27 21:40 | -10.60046 | -63.90559 | 27924 ft | 308 kts | 280° |
| 2026-04-27 21:40 | -10.59688 | -63.92709 | 27923 ft | 308 kts | 280° |
| 2026-04-27 21:40 | -10.59330 | -63.94855 | 27924 ft | 308 kts | 280° |
| 2026-04-27 21:41 | -10.58972 | -63.97002 | 27924 ft | 308 kts | 280° |
| 2026-04-27 21:41 | -10.58614 | -63.99147 | 27918 ft | 308 kts | 280° |
| 2026-04-27 21:41 | -10.58254 | -64.01301 | 27918 ft | 308 kts | 280° |
| 2026-04-27 21:41 | -10.57896 | -64.03446 | 27919 ft | 308 kts | 280° |
| 2026-04-27 21:42 | -10.57537 | -64.05591 | 27920 ft | 308 kts | 280° |
| 2026-04-27 21:42 | -10.57178 | -64.07737 | 27921 ft | 308 kts | 280° |
| 2026-04-27 21:42 | -10.56819 | -64.09883 | 27916 ft | 308 kts | 280° |
| 2026-04-27 21:42 | -10.56460 | -64.12026 | 27916 ft | 308 kts | 280° |
| 2026-04-27 21:43 | -10.56101 | -64.14170 | 27920 ft | 308 kts | 280° |
| 2026-04-27 21:43 | -10.55742 | -64.16316 | 27918 ft | 308 kts | 280° |
| 2026-04-27 21:43 | -10.55382 | -64.18458 | 27918 ft | 308 kts | 280° |
| 2026-04-27 21:43 | -10.55023 | -64.20600 | 27918 ft | 308 kts | 280° |
| 2026-04-27 21:44 | -10.54663 | -64.22744 | 27916 ft | 308 kts | 280° |
| 2026-04-27 21:44 | -10.54304 | -64.24889 | 27917 ft | 308 kts | 280° |
| 2026-04-27 21:44 | -10.53948 | -64.27004 | 27917 ft | 308 kts | 280° |
| 2026-04-27 21:44 | -10.53588 | -64.29146 | 27915 ft | 308 kts | 280° |
| 2026-04-27 21:45 | -10.53227 | -64.31292 | 27918 ft | 308 kts | 280° |
| 2026-04-27 21:45 | -10.52867 | -64.33438 | 27920 ft | 308 kts | 280° |
| 2026-04-27 21:45 | -10.52507 | -64.35582 | 27918 ft | 308 kts | 280° |
| 2026-04-27 21:45 | -10.52146 | -64.37730 | 27914 ft | 308 kts | 280° |
| 2026-04-27 21:46 | -10.51785 | -64.39870 | 27913 ft | 308 kts | 280° |
| 2026-04-27 21:46 | -10.51424 | -64.42012 | 27914 ft | 308 kts | 280° |
| 2026-04-27 21:46 | -10.51062 | -64.44152 | 27915 ft | 307 kts | 280° |
| 2026-04-27 21:46 | -10.50701 | -64.46294 | 27915 ft | 307 kts | 280° |
| 2026-04-27 21:47 | -10.50338 | -64.48440 | 27917 ft | 307 kts | 280° |
| 2026-04-27 21:47 | -10.49978 | -64.50579 | 27913 ft | 307 kts | 280° |
| 2026-04-27 21:47 | -10.49616 | -64.52718 | 27913 ft | 307 kts | 280° |
| 2026-04-27 21:47 | -10.49255 | -64.54857 | 27914 ft | 307 kts | 280° |
| 2026-04-27 21:48 | -10.48894 | -64.56992 | 27914 ft | 307 kts | 280° |
| 2026-04-27 21:48 | -10.48532 | -64.59133 | 27911 ft | 307 kts | 280° |
| 2026-04-27 21:48 | -10.48170 | -64.61270 | 27912 ft | 307 kts | 280° |
| 2026-04-27 21:48 | -10.47808 | -64.63408 | 27912 ft | 307 kts | 280° |
| 2026-04-27 21:49 | -10.47446 | -64.65544 | 27913 ft | 307 kts | 280° |
| 2026-04-27 21:49 | -10.47084 | -64.67684 | 27912 ft | 307 kts | 280° |
| 2026-04-27 21:49 | -10.46721 | -64.69823 | 27914 ft | 307 kts | 280° |
| 2026-04-27 21:49 | -10.46359 | -64.71961 | 27910 ft | 307 kts | 280° |
| 2026-04-27 21:50 | -10.45997 | -64.74096 | 27913 ft | 307 kts | 280° |
| 2026-04-27 21:50 | -10.45634 | -64.76235 | 27909 ft | 307 kts | 280° |
| 2026-04-27 21:50 | -10.45276 | -64.78346 | 27910 ft | 307 kts | 280° |
| 2026-04-27 21:50 | -10.44912 | -64.80489 | 27909 ft | 307 kts | 280° |
| 2026-04-27 21:51 | -10.44549 | -64.82625 | 27906 ft | 307 kts | 280° |
| 2026-04-27 21:51 | -10.44185 | -64.84762 | 27907 ft | 307 kts | 280° |
| 2026-04-27 21:51 | -10.43822 | -64.86899 | 27908 ft | 307 kts | 280° |
| 2026-04-27 21:51 | -10.43458 | -64.89037 | 27908 ft | 307 kts | 280° |
| 2026-04-27 21:52 | -10.43095 | -64.91176 | 27908 ft | 307 kts | 280° |
| 2026-04-27 21:52 | -10.42731 | -64.93312 | 27907 ft | 307 kts | 280° |
| 2026-04-27 21:52 | -10.42366 | -64.95454 | 27906 ft | 307 kts | 280° |
| 2026-04-27 21:52 | -10.42002 | -64.97588 | 27908 ft | 307 kts | 280° |
| 2026-04-27 21:53 | -10.41638 | -64.99723 | 27908 ft | 307 kts | 280° |
| 2026-04-27 21:53 | -10.41273 | -65.01866 | 27909 ft | 307 kts | 280° |
| 2026-04-27 21:53 | -10.40910 | -65.04002 | 27908 ft | 307 kts | 280° |
| 2026-04-27 21:53 | -10.40588 | -65.06146 | 27908 ft | 307 kts | 278° |
| 2026-04-27 21:54 | -10.40296 | -65.08295 | 27909 ft | 307 kts | 278° |
| 2026-04-27 21:54 | -10.40011 | -65.10450 | 27905 ft | 307 kts | 278° |
| 2026-04-27 21:54 | -10.39723 | -65.12603 | 27904 ft | 307 kts | 278° |
| 2026-04-27 21:54 | -10.39434 | -65.14754 | 27905 ft | 307 kts | 278° |
| 2026-04-27 21:55 | -10.39141 | -65.16905 | 27908 ft | 307 kts | 278° |
| 2026-04-27 21:55 | -10.38845 | -65.19055 | 27904 ft | 307 kts | 278° |
| 2026-04-27 21:55 | -10.38552 | -65.21178 | 27906 ft | 307 kts | 278° |
| 2026-04-27 21:55 | -10.38254 | -65.23330 | 27905 ft | 307 kts | 278° |
| 2026-04-27 21:56 | -10.37955 | -65.25481 | 27904 ft | 307 kts | 278° |
| 2026-04-27 21:56 | -10.37357 | -65.29780 | 27904 ft | 308 kts | 278° |
| 2026-04-27 21:56 | -10.37058 | -65.31931 | 27907 ft | 308 kts | 278° |
| 2026-04-27 21:57 | -10.36758 | -65.34082 | 27903 ft | 308 kts | 278° |
| 2026-04-27 21:57 | -10.36458 | -65.36234 | 27902 ft | 308 kts | 278° |
| 2026-04-27 21:57 | -10.36158 | -65.38386 | 27902 ft | 308 kts | 278° |
| 2026-04-27 21:57 | -10.35859 | -65.40533 | 27901 ft | 308 kts | 278° |
| 2026-04-27 21:58 | -10.35558 | -65.42688 | 27900 ft | 308 kts | 278° |
| 2026-04-27 21:58 | -10.35259 | -65.44836 | 27905 ft | 308 kts | 278° |
| 2026-04-27 21:58 | -10.34957 | -65.46988 | 27906 ft | 308 kts | 278° |
| 2026-04-27 21:58 | -10.34657 | -65.49140 | 27901 ft | 308 kts | 278° |
| 2026-04-27 21:59 | -10.34356 | -65.51290 | 27901 ft | 308 kts | 278° |
| 2026-04-27 21:59 | -10.34055 | -65.53439 | 27903 ft | 308 kts | 278° |
| 2026-04-27 21:59 | -10.33754 | -65.55593 | 27904 ft | 308 kts | 278° |
| 2026-04-27 21:59 | -10.33457 | -65.57715 | 27902 ft | 308 kts | 278° |
| 2026-04-27 22:00 | -10.33155 | -65.59867 | 27904 ft | 308 kts | 278° |
| 2026-04-27 22:00 | -10.32854 | -65.62016 | 27900 ft | 308 kts | 278° |
| 2026-04-27 22:00 | -10.32552 | -65.64169 | 27899 ft | 307 kts | 278° |
| 2026-04-27 22:00 | -10.32250 | -65.66317 | 27904 ft | 307 kts | 278° |
| 2026-04-27 22:01 | -10.31948 | -65.68470 | 27902 ft | 307 kts | 278° |
| 2026-04-27 22:01 | -10.31646 | -65.70619 | 27902 ft | 307 kts | 278° |
| 2026-04-27 22:01 | -10.31344 | -65.72766 | 27901 ft | 307 kts | 278° |
| 2026-04-27 22:01 | -10.31042 | -65.74915 | 27903 ft | 307 kts | 278° |
| 2026-04-27 22:02 | -10.30740 | -65.77065 | 27900 ft | 308 kts | 278° |
| 2026-04-27 22:02 | -10.30437 | -65.79216 | 27895 ft | 307 kts | 278° |
| 2026-04-27 22:02 | -10.30236 | -65.80641 | 27900 ft | 307 kts | 278° |
| 2026-04-27 22:02 | -10.29933 | -65.82793 | 27901 ft | 307 kts | 278° |
| 2026-04-27 22:03 | -10.29629 | -65.84946 | 27900 ft | 307 kts | 278° |
| 2026-04-27 22:03 | -10.29228 | -65.87789 | 27908 ft | 307 kts | 278° |
| 2026-04-27 22:03 | -10.28925 | -65.89936 | 27904 ft | 307 kts | 278° |
| 2026-04-27 22:03 | -10.28720 | -65.91391 | 27906 ft | 307 kts | 278° |
| 2026-04-27 22:04 | -10.28417 | -65.93540 | 27905 ft | 307 kts | 278° |
| 2026-04-27 22:04 | -10.28116 | -65.95663 | 27905 ft | 307 kts | 278° |
| 2026-04-27 22:04 | -10.27813 | -65.97810 | 27903 ft | 307 kts | 278° |
| 2026-04-27 22:04 | -10.27509 | -65.99959 | 27903 ft | 307 kts | 278° |
| 2026-04-27 22:05 | -10.27206 | -66.02105 | 27902 ft | 307 kts | 278° |
| 2026-04-27 22:05 | -10.26903 | -66.04254 | 27901 ft | 307 kts | 278° |
| 2026-04-27 22:05 | -10.26598 | -66.06402 | 27905 ft | 308 kts | 278° |
| 2026-04-27 22:05 | -10.26294 | -66.08551 | 27903 ft | 308 kts | 278° |
| 2026-04-27 22:06 | -10.25989 | -66.10700 | 27905 ft | 308 kts | 278° |
| 2026-04-27 22:06 | -10.25684 | -66.12850 | 27904 ft | 308 kts | 278° |
| 2026-04-27 22:06 | -10.25379 | -66.14998 | 27900 ft | 308 kts | 278° |
| 2026-04-27 22:06 | -10.25073 | -66.17150 | 27903 ft | 308 kts | 278° |
| 2026-04-27 22:07 | -10.24767 | -66.19302 | 27900 ft | 308 kts | 278° |
| 2026-04-27 22:07 | -10.24461 | -66.21448 | 27897 ft | 308 kts | 278° |
| 2026-04-27 22:07 | -10.24151 | -66.23618 | 27700 ft | 315 kts | 278° |
| 2026-04-27 22:07 | -10.23829 | -66.25862 | 27286 ft | 327 kts | 278° |
| 2026-04-27 22:08 | -10.23494 | -66.28176 | 26882 ft | 335 kts | 278° |
| 2026-04-27 22:08 | -10.23156 | -66.30515 | 26486 ft | 342 kts | 278° |
| 2026-04-27 22:08 | -10.22806 | -66.32951 | 26086 ft | 345 kts | 278° |
| 2026-04-27 22:08 | -10.22466 | -66.35328 | 25697 ft | 345 kts | 278° |
| 2026-04-27 22:09 | -10.22120 | -66.37742 | 25310 ft | 346 kts | 278° |
| 2026-04-27 22:09 | -10.21773 | -66.40159 | 24927 ft | 346 kts | 278° |
| 2026-04-27 22:09 | -10.21250 | -66.42545 | 24549 ft | 347 kts | 285° |
| 2026-04-27 22:09 | -10.20560 | -66.44894 | 24176 ft | 347 kts | 288° |
| 2026-04-27 22:10 | -10.19828 | -66.47235 | 23806 ft | 348 kts | 288° |
| 2026-04-27 22:10 | -10.19089 | -66.49574 | 23436 ft | 349 kts | 288° |
| 2026-04-27 22:10 | -10.18352 | -66.51919 | 22996 ft | 349 kts | 288° |
| 2026-04-27 22:10 | -10.17623 | -66.54268 | 22565 ft | 349 kts | 288° |
| 2026-04-27 22:11 | -10.16899 | -66.56623 | 22136 ft | 350 kts | 287° |
| 2026-04-27 22:11 | -10.16178 | -66.58983 | 21719 ft | 350 kts | 287° |
| 2026-04-27 22:11 | -10.15457 | -66.61346 | 21304 ft | 350 kts | 287° |
| 2026-04-27 22:11 | -10.14738 | -66.63705 | 20895 ft | 350 kts | 287° |
| 2026-04-27 22:12 | -10.14018 | -66.66062 | 20491 ft | 349 kts | 288° |
| 2026-04-27 22:12 | -10.13302 | -66.68408 | 20098 ft | 348 kts | 288° |
| 2026-04-27 22:12 | -10.12585 | -66.70748 | 19700 ft | 346 kts | 288° |
| 2026-04-27 22:12 | -10.11872 | -66.73078 | 19313 ft | 345 kts | 288° |
| 2026-04-27 22:13 | -10.11174 | -66.75365 | 18936 ft | 343 kts | 288° |
| 2026-04-27 22:13 | -10.10467 | -66.77674 | 18554 ft | 342 kts | 288° |
| 2026-04-27 22:13 | -10.09764 | -66.79971 | 18180 ft | 340 kts | 288° |
| 2026-04-27 22:13 | -10.09065 | -66.82256 | 17750 ft | 338 kts | 288° |
| 2026-04-27 22:14 | -10.08369 | -66.84534 | 17316 ft | 336 kts | 288° |
| 2026-04-27 22:14 | -10.07678 | -66.86798 | 16892 ft | 334 kts | 288° |
| 2026-04-27 22:14 | -10.06994 | -66.89042 | 16474 ft | 332 kts | 288° |
| 2026-04-27 22:14 | -10.06314 | -66.91268 | 16064 ft | 330 kts | 288° |
| 2026-04-27 22:15 | -10.05638 | -66.93484 | 15656 ft | 327 kts | 288° |
| 2026-04-27 22:15 | -10.04968 | -66.95683 | 15256 ft | 325 kts | 288° |
| 2026-04-27 22:15 | -10.04299 | -66.97874 | 14857 ft | 323 kts | 288° |
| 2026-04-27 22:15 | -10.03634 | -67.00050 | 14470 ft | 321 kts | 288° |
| 2026-04-27 22:16 | -10.02976 | -67.02206 | 14104 ft | 318 kts | 288° |
| 2026-04-27 22:16 | -10.02327 | -67.04339 | 13772 ft | 315 kts | 288° |
| 2026-04-27 22:16 | -10.01680 | -67.06459 | 13397 ft | 313 kts | 288° |
| 2026-04-27 22:16 | -10.01041 | -67.08558 | 13014 ft | 310 kts | 288° |
| 2026-04-27 22:17 | -10.00406 | -67.10643 | 12664 ft | 308 kts | 288° |
| 2026-04-27 22:17 | -9.99774 | -67.12707 | 12322 ft | 305 kts | 288° |
| 2026-04-27 22:17 | -9.99148 | -67.14756 | 11989 ft | 303 kts | 288° |
| 2026-04-27 22:17 | -9.98525 | -67.16793 | 11644 ft | 301 kts | 288° |
| 2026-04-27 22:18 | -9.97915 | -67.18791 | 11314 ft | 299 kts | 288° |
| 2026-04-27 22:18 | -9.97300 | -67.20800 | 10985 ft | 298 kts | 288° |
| 2026-04-27 22:18 | -9.96688 | -67.22799 | 10655 ft | 296 kts | 288° |
| 2026-04-27 22:18 | -9.96072 | -67.24815 | 10328 ft | 294 kts | 288° |
| 2026-04-27 22:19 | -9.95474 | -67.26764 | 10016 ft | 293 kts | 288° |
| 2026-04-27 22:19 | -9.94873 | -67.28730 | 9685 ft | 291 kts | 288° |
| 2026-04-27 22:19 | -9.94272 | -67.30685 | 9328 ft | 290 kts | 288° |
| 2026-04-27 22:19 | -9.93676 | -67.32631 | 8977 ft | 288 kts | 288° |
| 2026-04-27 22:20 | -9.93083 | -67.34566 | 8637 ft | 286 kts | 288° |
| 2026-04-27 22:20 | -9.92494 | -67.36486 | 8292 ft | 284 kts | 288° |
| 2026-04-27 22:20 | -9.91912 | -67.38391 | 7988 ft | 282 kts | 288° |
| 2026-04-27 22:20 | -9.91332 | -67.40281 | 7698 ft | 279 kts | 288° |
| 2026-04-27 22:21 | -9.90760 | -67.42154 | 7408 ft | 277 kts | 288° |
| 2026-04-27 22:21 | -9.90189 | -67.44012 | 7129 ft | 275 kts | 288° |
| 2026-04-27 22:21 | -9.89625 | -67.45855 | 6851 ft | 273 kts | 288° |
| 2026-04-27 22:21 | -9.89065 | -67.47680 | 6573 ft | 271 kts | 288° |
| 2026-04-27 22:22 | -9.88504 | -67.49503 | 6300 ft | 270 kts | 288° |
| 2026-04-27 22:22 | -9.87950 | -67.51314 | 6006 ft | 268 kts | 288° |
| 2026-04-27 22:22 | -9.87398 | -67.53112 | 5721 ft | 266 kts | 288° |
| 2026-04-27 22:22 | -9.86850 | -67.54885 | 5445 ft | 261 kts | 288° |
| 2026-04-27 22:23 | -9.86311 | -67.56629 | 5176 ft | 257 kts | 288° |
| 2026-04-27 22:23 | -9.85782 | -67.58353 | 4900 ft | 255 kts | 287° |
| 2026-04-27 22:23 | -9.85257 | -67.60064 | 4635 ft | 253 kts | 287° |
| 2026-04-27 22:23 | -9.84736 | -67.61763 | 4365 ft | 251 kts | 287° |
| 2026-04-27 22:24 | -9.84217 | -67.63450 | 4095 ft | 249 kts | 287° |
| 2026-04-27 22:24 | -9.83705 | -67.65079 | 3822 ft | 234 kts | 288° |
| 2026-04-27 22:24 | -9.83121 | -67.66554 | 3589 ft | 219 kts | 301° |
| 2026-04-27 22:24 | -9.82225 | -67.67776 | 3370 ft | 214 kts | 308° |
| 2026-04-27 22:25 | -9.81332 | -67.68981 | 3155 ft | 214 kts | 306° |
| 2026-04-27 22:25 | -9.80447 | -67.70185 | 3043 ft | 211 kts | 307° |
| 2026-04-27 22:25 | -9.79576 | -67.71359 | 3028 ft | 206 kts | 307° |
| 2026-04-27 22:25 | -9.78728 | -67.72510 | 3018 ft | 203 kts | 304° |
| 2026-04-27 22:26 | -9.78167 | -67.73772 | 3004 ft | 182 kts | 283° |
| 2026-04-27 22:26 | -9.78093 | -67.74955 | 2867 ft | 160 kts | 263° |
| 2026-04-27 22:26 | -9.78380 | -67.76008 | 2690 ft | 153 kts | 245° |
| 2026-04-27 22:26 | -9.78917 | -67.76927 | 2517 ft | 150 kts | 235° |
| 2026-04-27 22:27 | -9.79488 | -67.77801 | 2355 ft | 151 kts | 237° |
| 2026-04-27 22:27 | -9.80052 | -67.78693 | 2318 ft | 150 kts | 236° |
| 2026-04-27 22:27 | -9.80621 | -67.79584 | 2307 ft | 150 kts | 236° |
| 2026-04-27 22:27 | -9.81171 | -67.80461 | 2311 ft | 145 kts | 237° |
| 2026-04-27 22:28 | -9.81702 | -67.81301 | 2220 ft | 136 kts | 237° |
| 2026-04-27 22:28 | -9.82173 | -67.82051 | 2041 ft | 118 kts | 236° |
| 2026-04-27 22:28 | -9.82627 | -67.82714 | 1894 ft | 115 kts | 232° |
| 2026-04-27 22:28 | -9.83117 | -67.83416 | 1742 ft | 128 kts | 236° |
| 2026-04-27 22:29 | -9.83577 | -67.84207 | 1582 ft | 126 kts | 241° |
| 2026-04-27 22:29 | -9.83991 | -67.84923 | 1436 ft | 106 kts | 237° |
| 2026-04-27 22:29 | -9.84385 | -67.85516 | 1309 ft | 100 kts | 232° |
| 2026-04-27 22:29 | -9.84779 | -67.86092 | 1172 ft | 102 kts | 234° |
| 2026-04-27 22:30 | -9.85169 | -67.86692 | 1050 ft | 99 kts | 236° |
| 2026-04-27 22:30 | -9.85539 | -67.87260 | 915 ft | 96 kts | 236° |
| 2026-04-27 22:30 | -9.85892 | -67.87810 | 798 ft | 92 kts | 234° |
| 2026-04-27 22:30 | -9.86241 | -67.88356 | 697 ft | 91 kts | 235° |
| 2026-04-27 22:31 | -9.86565 | -67.88864 | 603 ft | 77 kts | 234° |
| 2026-04-27 22:31 | -9.86728 | -67.89119 | 610 ft | 18 kts | 236° |
| 2026-04-27 22:31 | -9.86779 | -67.89263 | 616 ft | 24 kts | 283° |
| 2026-04-27 22:31 | -9.86756 | -67.89372 | 620 ft | 11 kts | 282° |
| 2026-04-27 22:32 | -9.86739 | -67.89455 | 621 ft | 14 kts | 283° |
| 2026-04-27 22:32 | -9.86716 | -67.89546 | 620 ft | 13 kts | 283° |
| 2026-04-27 22:32 | -9.86747 | -67.89626 | 625 ft | 10 kts | 242° |
| 2026-04-27 22:32 | -9.86752 | -67.89634 | 624 ft | 2 kts | 239° |
| 2026-04-27 22:33 | -9.86767 | -67.89675 | 620 ft | 10 kts | 237° |
| 2026-04-27 22:33 | -9.86792 | -67.89719 | 620 ft | 4 kts | 287° |
| 2026-04-27 22:33 | -9.86764 | -67.89742 | 626 ft | 3 kts | 326° |
| 2026-04-27 22:33 | -9.86757 | -67.89746 | 620 ft | 0 kts | 326° |